ELY5141 LLBG-LCLK
Flight info
| Callsign | ELY5141 |
|---|---|
| Flight time | 1h 3m |
| Altitude | 32000 |
| Route | SUVAS DCT STEPA DCT APLON M32 PHA |
| Aircraft | B738/M-SDE2E3FGHIJ1LORVWXY/LB1 |
Departure
| Time | 2026-05-05 18:11 |
|---|---|
| Airport | Ben Gurion International Airport (LLBG) |
Arrival
| Time | 2026-05-05 19:15 |
|---|---|
| Airport | Larnaca International Airport (LCLK) |
| Time | Latitude | Longitude | Altitude | Speed | Heading |
|---|---|---|---|---|---|
| 2026-05-05 17:14 | 32.00123 | 34.87488 | 119 ft | 0 kts | 301° |
| 2026-05-05 17:59 | 32.00112 | 34.87510 | 115 ft | 4 kts | 302° |
| 2026-05-05 18:00 | 32.00096 | 34.87536 | 116 ft | 4 kts | 313° |
| 2026-05-05 18:00 | 32.00078 | 34.87551 | 116 ft | 4 kts | 7° |
| 2026-05-05 18:00 | 32.00068 | 34.87548 | 115 ft | 1 kts | 31° |
| 2026-05-05 18:00 | 32.00067 | 34.87547 | 115 ft | 0 kts | 31° |
| 2026-05-05 18:04 | 32.00068 | 34.87548 | 119 ft | 3 kts | 31° |
| 2026-05-05 18:05 | 32.00139 | 34.87599 | 118 ft | 20 kts | 32° |
| 2026-05-05 18:05 | 32.00276 | 34.87697 | 118 ft | 23 kts | 31° |
| 2026-05-05 18:05 | 32.00410 | 34.87793 | 117 ft | 22 kts | 31° |
| 2026-05-05 18:05 | 32.00539 | 34.87885 | 118 ft | 22 kts | 31° |
| 2026-05-05 18:06 | 32.00667 | 34.87976 | 118 ft | 22 kts | 31° |
| 2026-05-05 18:06 | 32.00760 | 34.88044 | 117 ft | 25 kts | 32° |
| 2026-05-05 18:06 | 32.00958 | 34.88188 | 116 ft | 24 kts | 31° |
| 2026-05-05 18:06 | 32.01098 | 34.88288 | 115 ft | 23 kts | 31° |
| 2026-05-05 18:07 | 32.01233 | 34.88386 | 120 ft | 22 kts | 34° |
| 2026-05-05 18:07 | 32.01345 | 34.88503 | 117 ft | 22 kts | 50° |
| 2026-05-05 18:07 | 32.01433 | 34.88644 | 119 ft | 21 kts | 60° |
| 2026-05-05 18:07 | 32.01487 | 34.88801 | 118 ft | 20 kts | 75° |
| 2026-05-05 18:08 | 32.01514 | 34.88962 | 117 ft | 20 kts | 79° |
| 2026-05-05 18:08 | 32.01518 | 34.88990 | 115 ft | 5 kts | 78° |
| 2026-05-05 18:08 | 32.01538 | 34.89111 | 119 ft | 24 kts | 77° |
| 2026-05-05 18:08 | 32.01651 | 34.89150 | 115 ft | 11 kts | 349° |
| 2026-05-05 18:09 | 32.01654 | 34.89150 | 116 ft | 0 kts | 349° |
| 2026-05-05 18:09 | 32.01656 | 34.89149 | 116 ft | 3 kts | 349° |
| 2026-05-05 18:10 | 32.01727 | 34.89125 | 117 ft | 15 kts | 319° |
| 2026-05-05 18:10 | 32.01740 | 34.89054 | 118 ft | 0 kts | 261° |
| 2026-05-05 18:10 | 32.01733 | 34.88998 | 117 ft | 31 kts | 260° |
| 2026-05-05 18:11 | 32.01652 | 34.88467 | 121 ft | 99 kts | 259° |
| 2026-05-05 18:11 | 32.01502 | 34.87433 | 136 ft | 153 kts | 261° |
| 2026-05-05 18:11 | 32.01288 | 34.86176 | 744 ft | 153 kts | 260° |
| 2026-05-05 18:11 | 32.01070 | 34.84944 | 1466 ft | 154 kts | 259° |
| 2026-05-05 18:12 | 32.00832 | 34.83726 | 2204 ft | 152 kts | 259° |
| 2026-05-05 18:12 | 32.00587 | 34.82512 | 2854 ft | 152 kts | 260° |
| 2026-05-05 18:12 | 32.00336 | 34.81294 | 3483 ft | 155 kts | 259° |
| 2026-05-05 18:12 | 32.00077 | 34.80044 | 4088 ft | 161 kts | 259° |
| 2026-05-05 18:13 | 31.99801 | 34.78719 | 4719 ft | 173 kts | 258° |
| 2026-05-05 18:13 | 31.99509 | 34.77330 | 5490 ft | 176 kts | 257° |
| 2026-05-05 18:13 | 31.99213 | 34.75919 | 6265 ft | 178 kts | 259° |
| 2026-05-05 18:13 | 31.99280 | 34.74500 | 6974 ft | 177 kts | 285° |
| 2026-05-05 18:14 | 31.99682 | 34.73118 | 7703 ft | 179 kts | 288° |
| 2026-05-05 18:14 | 32.00115 | 34.71737 | 8400 ft | 181 kts | 289° |
| 2026-05-05 18:14 | 32.00557 | 34.70335 | 9064 ft | 183 kts | 290° |
| 2026-05-05 18:14 | 32.00999 | 34.68923 | 9712 ft | 185 kts | 290° |
| 2026-05-05 18:15 | 32.01445 | 34.67497 | 10310 ft | 186 kts | 290° |
| 2026-05-05 18:15 | 32.01893 | 34.66063 | 10831 ft | 188 kts | 289° |
| 2026-05-05 18:15 | 32.02346 | 34.64608 | 11318 ft | 190 kts | 289° |
| 2026-05-05 18:15 | 32.02707 | 34.63109 | 11799 ft | 192 kts | 275° |
| 2026-05-05 18:16 | 32.02768 | 34.61542 | 12323 ft | 192 kts | 274° |
| 2026-05-05 18:16 | 32.02845 | 34.59964 | 12819 ft | 194 kts | 274° |
| 2026-05-05 18:16 | 32.02930 | 34.58357 | 13278 ft | 199 kts | 274° |
| 2026-05-05 18:16 | 32.03017 | 34.56711 | 13731 ft | 204 kts | 274° |
| 2026-05-05 18:17 | 32.03107 | 34.55025 | 14146 ft | 209 kts | 274° |
| 2026-05-05 18:17 | 32.03199 | 34.53299 | 14559 ft | 213 kts | 274° |
| 2026-05-05 18:17 | 32.03293 | 34.51535 | 14977 ft | 218 kts | 273° |
| 2026-05-05 18:17 | 32.03388 | 34.49733 | 15372 ft | 224 kts | 273° |
| 2026-05-05 18:18 | 32.03486 | 34.47877 | 15789 ft | 229 kts | 273° |
| 2026-05-05 18:18 | 32.03586 | 34.45975 | 16204 ft | 236 kts | 273° |
| 2026-05-05 18:18 | 32.03690 | 34.44024 | 16620 ft | 242 kts | 273° |
| 2026-05-05 18:18 | 32.03803 | 34.42024 | 17040 ft | 247 kts | 273° |
| 2026-05-05 18:19 | 32.03921 | 34.39980 | 17461 ft | 253 kts | 273° |
| 2026-05-05 18:19 | 32.04042 | 34.37889 | 17888 ft | 258 kts | 273° |
| 2026-05-05 18:19 | 32.04164 | 34.35759 | 18317 ft | 263 kts | 273° |
| 2026-05-05 18:19 | 32.04289 | 34.33574 | 18665 ft | 273 kts | 273° |
| 2026-05-05 18:20 | 32.04419 | 34.31299 | 19057 ft | 283 kts | 273° |
| 2026-05-05 18:20 | 32.04552 | 34.28947 | 19456 ft | 293 kts | 273° |
| 2026-05-05 18:20 | 32.04689 | 34.26513 | 19862 ft | 302 kts | 273° |
| 2026-05-05 18:20 | 32.04861 | 34.24007 | 20265 ft | 312 kts | 278° |
| 2026-05-05 18:21 | 32.05561 | 34.21543 | 20665 ft | 324 kts | 295° |
| 2026-05-05 18:21 | 32.06699 | 34.19207 | 21091 ft | 333 kts | 298° |
| 2026-05-05 18:21 | 32.07924 | 34.16844 | 21519 ft | 341 kts | 298° |
| 2026-05-05 18:21 | 32.09182 | 34.14437 | 21937 ft | 349 kts | 298° |
| 2026-05-05 18:22 | 32.10457 | 34.11975 | 22364 ft | 355 kts | 298° |
| 2026-05-05 18:22 | 32.11731 | 34.09492 | 22793 ft | 361 kts | 297° |
| 2026-05-05 18:22 | 32.13036 | 34.06931 | 23230 ft | 367 kts | 297° |
| 2026-05-05 18:22 | 32.14355 | 34.04330 | 23662 ft | 372 kts | 297° |
| 2026-05-05 18:23 | 32.15689 | 34.01696 | 24034 ft | 376 kts | 297° |
| 2026-05-05 18:23 | 32.17029 | 33.99030 | 24408 ft | 380 kts | 296° |
| 2026-05-05 18:23 | 32.18275 | 33.96271 | 24784 ft | 382 kts | 293° |
| 2026-05-05 18:23 | 32.19449 | 33.93445 | 25165 ft | 384 kts | 292° |
| 2026-05-05 18:24 | 32.20602 | 33.90588 | 25545 ft | 387 kts | 292° |
| 2026-05-05 18:24 | 32.21761 | 33.87708 | 25940 ft | 389 kts | 292° |
| 2026-05-05 18:24 | 32.22928 | 33.84821 | 26318 ft | 391 kts | 292° |
| 2026-05-05 18:24 | 32.24108 | 33.81920 | 26735 ft | 392 kts | 292° |
| 2026-05-05 18:25 | 32.25296 | 33.79016 | 27147 ft | 393 kts | 292° |
| 2026-05-05 18:25 | 32.26087 | 33.77089 | 27413 ft | 394 kts | 292° |
| 2026-05-05 18:25 | 32.27690 | 33.73189 | 27969 ft | 395 kts | 292° |
| 2026-05-05 18:25 | 32.28889 | 33.70272 | 28389 ft | 395 kts | 292° |
| 2026-05-05 18:26 | 32.30088 | 33.67356 | 28823 ft | 395 kts | 292° |
| 2026-05-05 18:26 | 32.31288 | 33.64437 | 29262 ft | 394 kts | 292° |
| 2026-05-05 18:26 | 32.32483 | 33.61525 | 29702 ft | 394 kts | 292° |
| 2026-05-05 18:26 | 32.33661 | 33.58655 | 30145 ft | 393 kts | 292° |
| 2026-05-05 18:27 | 32.34850 | 33.55752 | 30517 ft | 392 kts | 292° |
| 2026-05-05 18:27 | 32.36037 | 33.52855 | 30907 ft | 391 kts | 292° |
| 2026-05-05 18:27 | 32.37217 | 33.49970 | 31288 ft | 389 kts | 292° |
| 2026-05-05 18:27 | 32.38394 | 33.47091 | 31684 ft | 388 kts | 292° |
| 2026-05-05 18:28 | 32.40744 | 33.41331 | 32052 ft | 393 kts | 292° |
| 2026-05-05 18:28 | 32.43151 | 33.35415 | 32080 ft | 404 kts | 292° |
| 2026-05-05 18:29 | 32.45615 | 33.29355 | 32085 ft | 413 kts | 292° |
| 2026-05-05 18:29 | 32.48113 | 33.23211 | 32072 ft | 414 kts | 292° |
| 2026-05-05 18:30 | 32.50607 | 33.17064 | 32074 ft | 414 kts | 292° |
| 2026-05-05 18:30 | 32.53098 | 33.10911 | 32070 ft | 414 kts | 292° |
| 2026-05-05 18:31 | 32.55586 | 33.04755 | 32073 ft | 414 kts | 292° |
| 2026-05-05 18:31 | 32.58069 | 32.98597 | 32072 ft | 414 kts | 292° |
| 2026-05-05 18:32 | 32.60551 | 32.92433 | 32072 ft | 414 kts | 292° |
| 2026-05-05 18:32 | 32.63029 | 32.86266 | 32069 ft | 414 kts | 292° |
| 2026-05-05 18:33 | 32.65506 | 32.80092 | 32068 ft | 414 kts | 292° |
| 2026-05-05 18:33 | 32.67980 | 32.73915 | 32068 ft | 414 kts | 292° |
| 2026-05-05 18:34 | 32.70434 | 32.67774 | 32056 ft | 415 kts | 292° |
| 2026-05-05 18:34 | 32.72903 | 32.61588 | 32065 ft | 415 kts | 292° |
| 2026-05-05 18:35 | 32.75370 | 32.55394 | 32066 ft | 415 kts | 292° |
| 2026-05-05 18:35 | 32.77835 | 32.49195 | 32066 ft | 415 kts | 292° |
| 2026-05-05 18:36 | 32.80514 | 32.43111 | 32049 ft | 421 kts | 305° |
| 2026-05-05 18:36 | 32.82604 | 32.40646 | 32062 ft | 428 kts | 317° |
| 2026-05-05 18:36 | 32.85124 | 32.38719 | 32058 ft | 437 kts | 329° |
| 2026-05-05 18:37 | 32.91019 | 32.36556 | 32063 ft | 447 kts | 340° |
| 2026-05-05 18:37 | 32.97067 | 32.34790 | 32066 ft | 448 kts | 340° |
| 2026-05-05 18:38 | 33.03115 | 32.32990 | 32067 ft | 448 kts | 340° |
| 2026-05-05 18:38 | 33.09153 | 32.31131 | 32067 ft | 448 kts | 340° |
| 2026-05-05 18:39 | 33.12169 | 32.30190 | 31927 ft | 449 kts | 340° |
| 2026-05-05 18:39 | 33.15181 | 32.29249 | 31636 ft | 445 kts | 340° |
| 2026-05-05 18:39 | 33.18165 | 32.28316 | 31284 ft | 441 kts | 340° |
| 2026-05-05 18:39 | 33.21124 | 32.27391 | 30932 ft | 438 kts | 340° |
| 2026-05-05 18:40 | 33.24066 | 32.26469 | 30574 ft | 436 kts | 340° |
| 2026-05-05 18:40 | 33.26997 | 32.25550 | 30215 ft | 434 kts | 340° |
| 2026-05-05 18:40 | 33.29914 | 32.24635 | 29811 ft | 432 kts | 340° |
| 2026-05-05 18:40 | 33.32816 | 32.23724 | 29399 ft | 431 kts | 340° |
| 2026-05-05 18:41 | 33.35713 | 32.22814 | 28980 ft | 429 kts | 341° |
| 2026-05-05 18:41 | 33.38590 | 32.21910 | 28567 ft | 427 kts | 341° |
| 2026-05-05 18:41 | 33.41459 | 32.21008 | 28169 ft | 425 kts | 341° |
| 2026-05-05 18:41 | 33.44315 | 32.20109 | 27780 ft | 424 kts | 341° |
| 2026-05-05 18:42 | 33.47161 | 32.19213 | 27395 ft | 422 kts | 341° |
| 2026-05-05 18:42 | 33.49997 | 32.18320 | 27005 ft | 420 kts | 341° |
| 2026-05-05 18:42 | 33.52804 | 32.17434 | 26640 ft | 426 kts | 341° |
| 2026-05-05 18:42 | 33.55686 | 32.16522 | 26269 ft | 430 kts | 341° |
| 2026-05-05 18:43 | 33.58574 | 32.15610 | 25897 ft | 428 kts | 341° |
| 2026-05-05 18:43 | 33.61439 | 32.14708 | 25561 ft | 424 kts | 341° |
| 2026-05-05 18:43 | 33.64284 | 32.13810 | 25213 ft | 422 kts | 341° |
| 2026-05-05 18:43 | 33.67114 | 32.12915 | 24885 ft | 420 kts | 341° |
| 2026-05-05 18:44 | 33.69932 | 32.12023 | 24554 ft | 418 kts | 341° |
| 2026-05-05 18:44 | 33.72742 | 32.11132 | 24227 ft | 417 kts | 342° |
| 2026-05-05 18:44 | 33.75543 | 32.10244 | 23905 ft | 416 kts | 342° |
| 2026-05-05 18:44 | 33.78343 | 32.09355 | 23583 ft | 416 kts | 342° |
| 2026-05-05 18:45 | 33.81141 | 32.08467 | 23207 ft | 415 kts | 342° |
| 2026-05-05 18:45 | 33.83955 | 32.07676 | 22816 ft | 417 kts | 349° |
| 2026-05-05 18:45 | 33.86869 | 32.07582 | 22448 ft | 421 kts | 1° |
| 2026-05-05 18:45 | 33.89761 | 32.08208 | 22083 ft | 425 kts | 13° |
| 2026-05-05 18:46 | 33.92517 | 32.09489 | 21739 ft | 424 kts | 19° |
| 2026-05-05 18:46 | 33.95219 | 32.10905 | 21385 ft | 422 kts | 20° |
| 2026-05-05 18:46 | 33.97888 | 32.12334 | 21086 ft | 418 kts | 20° |
| 2026-05-05 18:46 | 34.00532 | 32.13746 | 20780 ft | 414 kts | 20° |
| 2026-05-05 18:47 | 34.03161 | 32.15133 | 20480 ft | 411 kts | 20° |
| 2026-05-05 18:47 | 34.05775 | 32.16499 | 20183 ft | 408 kts | 20° |
| 2026-05-05 18:47 | 34.08376 | 32.17849 | 19894 ft | 405 kts | 19° |
| 2026-05-05 18:47 | 34.10959 | 32.19184 | 19602 ft | 403 kts | 19° |
| 2026-05-05 18:48 | 34.13534 | 32.20514 | 19316 ft | 401 kts | 19° |
| 2026-05-05 18:48 | 34.16095 | 32.21836 | 19032 ft | 399 kts | 19° |
| 2026-05-05 18:48 | 34.18645 | 32.23153 | 18751 ft | 398 kts | 19° |
| 2026-05-05 18:48 | 34.21185 | 32.24467 | 18478 ft | 396 kts | 19° |
| 2026-05-05 18:49 | 34.23715 | 32.25777 | 18180 ft | 395 kts | 19° |
| 2026-05-05 18:49 | 34.26237 | 32.27082 | 17867 ft | 394 kts | 19° |
| 2026-05-05 18:49 | 34.28716 | 32.28368 | 17553 ft | 392 kts | 19° |
| 2026-05-05 18:49 | 34.31252 | 32.29683 | 17241 ft | 391 kts | 20° |
| 2026-05-05 18:50 | 34.33713 | 32.30961 | 16934 ft | 389 kts | 20° |
| 2026-05-05 18:50 | 34.36198 | 32.32251 | 16627 ft | 388 kts | 20° |
| 2026-05-05 18:50 | 34.38673 | 32.33538 | 16325 ft | 386 kts | 20° |
| 2026-05-05 18:50 | 34.41139 | 32.34821 | 16026 ft | 385 kts | 20° |
| 2026-05-05 18:51 | 34.43593 | 32.36098 | 15726 ft | 383 kts | 20° |
| 2026-05-05 18:51 | 34.46040 | 32.37372 | 15431 ft | 382 kts | 20° |
| 2026-05-05 18:51 | 34.48475 | 32.38642 | 15141 ft | 380 kts | 20° |
| 2026-05-05 18:51 | 34.50903 | 32.39912 | 14853 ft | 379 kts | 21° |
| 2026-05-05 18:52 | 34.53317 | 32.41181 | 14569 ft | 377 kts | 21° |
| 2026-05-05 18:52 | 34.55720 | 32.42444 | 14282 ft | 376 kts | 21° |
| 2026-05-05 18:52 | 34.58111 | 32.43702 | 14002 ft | 374 kts | 21° |
| 2026-05-05 18:52 | 34.60495 | 32.44957 | 13713 ft | 372 kts | 21° |
| 2026-05-05 18:53 | 34.62867 | 32.46206 | 13395 ft | 371 kts | 21° |
| 2026-05-05 18:53 | 34.65223 | 32.47447 | 13080 ft | 368 kts | 21° |
| 2026-05-05 18:53 | 34.67569 | 32.48683 | 12775 ft | 366 kts | 22° |
| 2026-05-05 18:53 | 34.69054 | 32.49647 | 12544 ft | 367 kts | 33° |
| 2026-05-05 18:54 | 34.70829 | 32.51860 | 12244 ft | 368 kts | 55° |
| 2026-05-05 18:54 | 34.71885 | 32.54681 | 11940 ft | 368 kts | 75° |
| 2026-05-05 18:54 | 34.72374 | 32.57717 | 11724 ft | 364 kts | 79° |
| 2026-05-05 18:54 | 34.72784 | 32.60741 | 11524 ft | 360 kts | 79° |
| 2026-05-05 18:55 | 34.73194 | 32.63709 | 11314 ft | 352 kts | 79° |
| 2026-05-05 18:55 | 34.73613 | 32.66596 | 11108 ft | 339 kts | 78° |
| 2026-05-05 18:55 | 34.74021 | 32.69340 | 11000 ft | 320 kts | 78° |
| 2026-05-05 18:55 | 34.74407 | 32.71936 | 10896 ft | 305 kts | 78° |
| 2026-05-05 18:56 | 34.74771 | 32.74458 | 10641 ft | 302 kts | 78° |
| 2026-05-05 18:56 | 34.75132 | 32.76966 | 10363 ft | 300 kts | 78° |
| 2026-05-05 18:56 | 34.75489 | 32.79460 | 10101 ft | 298 kts | 78° |
| 2026-05-05 18:56 | 34.75841 | 32.81921 | 9891 ft | 294 kts | 78° |
| 2026-05-05 18:57 | 34.76190 | 32.84356 | 9649 ft | 290 kts | 78° |
| 2026-05-05 18:57 | 34.76533 | 32.86761 | 9437 ft | 288 kts | 78° |
| 2026-05-05 18:57 | 34.76877 | 32.89163 | 9235 ft | 289 kts | 78° |
| 2026-05-05 18:57 | 34.77221 | 32.91577 | 9033 ft | 290 kts | 78° |
| 2026-05-05 18:58 | 34.77561 | 32.93965 | 8815 ft | 291 kts | 79° |
| 2026-05-05 18:58 | 34.77905 | 32.96384 | 8599 ft | 290 kts | 79° |
| 2026-05-05 18:58 | 34.78247 | 32.98796 | 8381 ft | 289 kts | 79° |
| 2026-05-05 18:58 | 34.78589 | 33.01202 | 8168 ft | 288 kts | 79° |
| 2026-05-05 18:59 | 34.78928 | 33.03600 | 7955 ft | 287 kts | 79° |
| 2026-05-05 18:59 | 34.79266 | 33.05989 | 7741 ft | 286 kts | 79° |
| 2026-05-05 18:59 | 34.79601 | 33.08360 | 7543 ft | 283 kts | 79° |
| 2026-05-05 18:59 | 34.79936 | 33.10715 | 7348 ft | 281 kts | 79° |
| 2026-05-05 19:00 | 34.80273 | 33.13054 | 7144 ft | 280 kts | 79° |
| 2026-05-05 19:00 | 34.80607 | 33.15377 | 6944 ft | 278 kts | 79° |
| 2026-05-05 19:00 | 34.80939 | 33.17687 | 6750 ft | 276 kts | 79° |
| 2026-05-05 19:00 | 34.81269 | 33.19986 | 6551 ft | 275 kts | 79° |
| 2026-05-05 19:01 | 34.81596 | 33.22272 | 6355 ft | 274 kts | 79° |
| 2026-05-05 19:01 | 34.81922 | 33.24548 | 6146 ft | 273 kts | 79° |
| 2026-05-05 19:01 | 34.82246 | 33.26816 | 5941 ft | 271 kts | 79° |
| 2026-05-05 19:01 | 34.82568 | 33.29075 | 5735 ft | 270 kts | 79° |
| 2026-05-05 19:02 | 34.82889 | 33.31328 | 5530 ft | 270 kts | 79° |
| 2026-05-05 19:02 | 34.83208 | 33.33575 | 5333 ft | 269 kts | 79° |
| 2026-05-05 19:02 | 34.83525 | 33.35809 | 5177 ft | 267 kts | 79° |
| 2026-05-05 19:02 | 34.83839 | 33.38023 | 5054 ft | 265 kts | 80° |
| 2026-05-05 19:03 | 34.84152 | 33.40237 | 4927 ft | 266 kts | 79° |
| 2026-05-05 19:03 | 34.84466 | 33.42458 | 4804 ft | 267 kts | 80° |
| 2026-05-05 19:03 | 34.84780 | 33.44688 | 4686 ft | 268 kts | 80° |
| 2026-05-05 19:03 | 34.85096 | 33.46932 | 4573 ft | 269 kts | 80° |
| 2026-05-05 19:04 | 34.85412 | 33.49179 | 4460 ft | 270 kts | 80° |
| 2026-05-05 19:04 | 34.85725 | 33.51402 | 4353 ft | 270 kts | 80° |
| 2026-05-05 19:04 | 34.86042 | 33.53659 | 4240 ft | 271 kts | 80° |
| 2026-05-05 19:04 | 34.86359 | 33.55922 | 4128 ft | 271 kts | 80° |
| 2026-05-05 19:05 | 34.86404 | 33.58189 | 3997 ft | 266 kts | 105° |
| 2026-05-05 19:05 | 34.85694 | 33.60181 | 3931 ft | 252 kts | 116° |
| 2026-05-05 19:05 | 34.84917 | 33.62055 | 3804 ft | 243 kts | 116° |
| 2026-05-05 19:05 | 34.84182 | 33.63858 | 3661 ft | 235 kts | 116° |
| 2026-05-05 19:06 | 34.83475 | 33.65633 | 3553 ft | 232 kts | 115° |
| 2026-05-05 19:06 | 34.82785 | 33.67401 | 3440 ft | 231 kts | 115° |
| 2026-05-05 19:06 | 34.82101 | 33.69170 | 3329 ft | 231 kts | 115° |
| 2026-05-05 19:06 | 34.81422 | 33.70936 | 3220 ft | 230 kts | 115° |
| 2026-05-05 19:07 | 34.80744 | 33.72703 | 3100 ft | 231 kts | 115° |
| 2026-05-05 19:07 | 34.80078 | 33.74488 | 3019 ft | 232 kts | 108° |
| 2026-05-05 19:07 | 34.79944 | 33.76399 | 2945 ft | 225 kts | 78° |
| 2026-05-05 19:07 | 34.80535 | 33.78129 | 2750 ft | 221 kts | 55° |
| 2026-05-05 19:08 | 34.81635 | 33.79395 | 2527 ft | 217 kts | 31° |
| 2026-05-05 19:08 | 34.82972 | 33.80205 | 2330 ft | 213 kts | 18° |
| 2026-05-05 19:08 | 34.84390 | 33.80609 | 2138 ft | 207 kts | 7° |
| 2026-05-05 19:08 | 34.85813 | 33.80751 | 1955 ft | 203 kts | 1° |
| 2026-05-05 19:09 | 34.87209 | 33.80791 | 1791 ft | 199 kts | 358° |
| 2026-05-05 19:09 | 34.88585 | 33.80717 | 1653 ft | 197 kts | 353° |
| 2026-05-05 19:09 | 34.89937 | 33.80499 | 1529 ft | 196 kts | 348° |
| 2026-05-05 19:09 | 34.91239 | 33.80138 | 1495 ft | 189 kts | 343° |
| 2026-05-05 19:10 | 34.92482 | 33.79652 | 1512 ft | 187 kts | 339° |
| 2026-05-05 19:10 | 34.93671 | 33.79052 | 1493 ft | 183 kts | 334° |
| 2026-05-05 19:10 | 34.94783 | 33.78360 | 1495 ft | 177 kts | 328° |
| 2026-05-05 19:10 | 34.95786 | 33.77483 | 1503 ft | 178 kts | 322° |
| 2026-05-05 19:11 | 34.96677 | 33.76433 | 1481 ft | 181 kts | 297° |
| 2026-05-05 19:11 | 34.96753 | 33.74973 | 1497 ft | 175 kts | 249° |
| 2026-05-05 19:11 | 34.96157 | 33.73692 | 1499 ft | 174 kts | 239° |
| 2026-05-05 19:11 | 34.95440 | 33.72516 | 1513 ft | 173 kts | 234° |
| 2026-05-05 19:12 | 34.94676 | 33.71388 | 1483 ft | 172 kts | 230° |
| 2026-05-05 19:12 | 34.93850 | 33.70332 | 1460 ft | 175 kts | 227° |
| 2026-05-05 19:12 | 34.92991 | 33.69278 | 1267 ft | 172 kts | 227° |
| 2026-05-05 19:12 | 34.92162 | 33.68264 | 1042 ft | 166 kts | 228° |
| 2026-05-05 19:13 | 34.91364 | 33.67285 | 855 ft | 160 kts | 228° |
| 2026-05-05 19:13 | 34.90609 | 33.66358 | 655 ft | 154 kts | 229° |
| 2026-05-05 19:13 | 34.89884 | 33.65468 | 510 ft | 143 kts | 228° |
| 2026-05-05 19:13 | 34.89177 | 33.64602 | 310 ft | 142 kts | 229° |
| 2026-05-05 19:14 | 34.88498 | 33.63778 | 123 ft | 137 kts | 229° |
| 2026-05-05 19:14 | 34.87847 | 33.62982 | 33 ft | 125 kts | 230° |
| 2026-05-05 19:14 | 34.87305 | 33.62297 | 20 ft | 94 kts | 223° |
| 2026-05-05 19:14 | 34.86944 | 33.61866 | 21 ft | 51 kts | 225° |
| 2026-05-05 19:15 | 34.86799 | 33.61689 | 20 ft | 8 kts | 225° |
| 2026-05-05 19:15 | 34.86711 | 33.61582 | 20 ft | 28 kts | 225° |
| 2026-05-05 19:15 | 34.86624 | 33.61394 | 20 ft | 17 kts | 299° |
| 2026-05-05 19:15 | 34.86704 | 33.61289 | 20 ft | 17 kts | 302° |
| 2026-05-05 19:16 | 34.86661 | 33.61167 | 20 ft | 18 kts | 223° |
| 2026-05-05 19:16 | 34.86640 | 33.61134 | 20 ft | 0 kts | 243° |
| 2026-05-05 19:16 | 34.86637 | 33.61128 | 20 ft | 6 kts | 243° |
| 2026-05-05 19:17 | 34.86683 | 33.61022 | 20 ft | 22 kts | 315° |
| 2026-05-05 19:17 | 34.86793 | 33.60894 | 19 ft | 13 kts | 323° |
| 2026-05-05 19:17 | 34.86827 | 33.60904 | 19 ft | 5 kts | 26° |
| 2026-05-05 19:17 | 34.86836 | 33.60920 | 21 ft | 6 kts | 72° |
| 2026-05-05 19:18 | 34.86855 | 33.60944 | 19 ft | 4 kts | 14° |
| 2026-05-05 19:18 | 34.86867 | 33.60950 | 19 ft | 3 kts | 27° |
| 2026-05-05 19:18 | 34.86875 | 33.60956 | 19 ft | 0 kts | 37° |